Flight Track Log - Related Links

Times and Time Zones

All times are in EST time to prevent confusion due to time zone crossing. See the N775DM flight status page for this flight to view local times or setup timezone preferences in your user account.

Time Position Orientation Groundspeed Altitude Reporting Facility
EST Latitude Longitude Course Direction KTS MPH feet Rate Location/Type
Thu 04:54:21 PM 32.1408 -102.1433 305° West 149 171 9,500  Level Fort Center
Thu 04:55:21 PM 32.1647 -102.1792 308° West 154 177 10,900 1,350 Climbing Fort Center
Thu 04:56:00 PM 32.2473 -102.5881 301° West  Level Estimated
Thu 04:56:21 PM 32.1839 -102.2192 300° West 148 170 12,200  Level Fort Center
Thu 04:57:00 PM 32.2736 -102.6492 306° West  Level Estimated
Thu 04:57:21 PM 32.2033 -102.2547 303° West 142 163 13,500  Level Fort Center
Thu 04:58:00 PM 32.3067 -102.7056 305° West  Level FlightAware
Thu 04:58:21 PM 32.2269 -102.2953 305° West 142 163 14,000  Level Fort Center
Thu 04:59:21 PM 32.2500 -102.3456 298° West 162 186 14,000  Level Fort Center
Thu 05:00:21 PM 32.2814 -102.3989 305° West 179 206 14,000 350 Level Fort Center
Thu 05:01:21 PM 32.3106 -102.4519 303° West 193 222 14,700 800 Climbing Fort Center
Thu 05:02:21 PM 32.3397 -102.5053 303° West 188 216 15,600 650 Climbing Fort Center
Thu 05:03:21 PM 32.3647 -102.5583 299° West 183 211 16,000 200 Climbing Fort Center
Thu 05:04:21 PM 32.3936 -102.6142 302° West 190 219 16,000  Level Fort Center
Thu 05:05:21 PM 32.4267 -102.6728 304° West 200 230 16,000  Level Fort Center
Thu 05:06:21 PM 32.4617 -102.7314 305° West 211 243 16,000  Level Fort Center
Thu 05:07:21 PM 32.4925 -102.7922 301° West 216 249 16,000  Level Fort Center
Thu 05:08:21 PM 32.5253 -102.8533 302° West 216 249 16,000  Level Fort Center
Thu 05:09:21 PM 32.5561 -102.9142 301° West 216 249 16,000  Level Fort Center
Thu 05:10:21 PM 32.5889 -102.9756 302° West 216 249 16,000  Level Fort Center
Thu 05:11:21 PM 32.6197 -103.0342 302° West 216 249 16,000  Level Fort Center
Thu 05:12:21 PM 32.6525 -103.0928 304° West 216 249 16,000  Level Fort Center
Thu 05:13:21 PM 32.6853 -103.1542 302° West 216 249 16,000  Level Fort Center
Thu 05:14:21 PM 32.7158 -103.2128 302° West 216 249 16,000  Level Fort Center
Thu 05:15:21 PM 32.7486 -103.2719 303° West 216 249 16,000  Level Fort Center
Thu 05:16:21 PM 32.7792 -103.3331 301° West 216 249 16,000  Level Fort Center
Thu 05:17:21 PM 32.8119 -103.3919 304° West 216 249 16,000  Level Fort Center
Thu 05:17:56 PM 32.8267 -103.4228 300° West 215 247 16,000  Level Albuquerque Center
Thu 05:18:58 PM 32.8564 -103.4831 300° West 213 245 16,000  Level Albuquerque Center
Thu 05:20:00 PM 32.8869 -103.5425 301° West 212 244 16,000  Level Albuquerque Center
Thu 05:21:02 PM 32.9175 -103.6031 301° West 214 246 16,000  Level Albuquerque Center
Thu 05:22:04 PM 32.9500 -103.6619 303° West 213 245 16,000  Level Albuquerque Center
Thu 05:23:06 PM 32.9908 -103.7331 304° West 217 250 16,000  Level Albuquerque Center
Thu 05:24:08 PM 33.0247 -103.7978 302° West 215 247 16,000  Level Albuquerque Center
Thu 05:25:10 PM 33.0564 -103.8586 302° West 215 247 16,000  Level Albuquerque Center
Thu 05:26:12 PM 33.0889 -103.9219 301° West 210 242 16,000  Level Albuquerque Center
Thu 05:27:14 PM 33.1192 -103.9811 301° West 208 239 16,000  Level Albuquerque Center
Thu 05:28:16 PM 33.1508 -104.0447 301° West 207 238 16,000  Level Albuquerque Center
Thu 05:29:18 PM 33.1806 -104.1033 301° West 206 237 16,000  Level Albuquerque Center
Thu 05:30:20 PM 33.2108 -104.1628 301° West 208 239 16,000  Level Albuquerque Center
Thu 05:31:22 PM 33.2433 -104.2247 302° West 205 236 16,000  Level Albuquerque Center
Thu 05:32:24 PM 33.2731 -104.2839 301° West 208 239 16,000  Level Albuquerque Center
Thu 05:33:27 PM 33.3047 -104.3481 301° West 209 241 16,000 -192 Level Albuquerque Center
Thu 05:34:29 PM 33.3317 -104.4108 297° West 213 245 15,600 -581 Descending Albuquerque Center
Thu 05:35:31 PM 33.3386 -104.4881 276° West 217 250 14,800 -774 Descending Albuquerque Center
Thu 05:36:33 PM 33.3447 -104.5578 276° West 215 247 14,000 -726 Descending Albuquerque Center
Thu 05:37:35 PM 33.3539 -104.6311 279° West 210 242 13,300 -677 Descending Albuquerque Center
Thu 05:38:37 PM 33.3636 -104.6992 280° West 209 241 12,600 -726 Descending Albuquerque Center
Thu 05:39:39 PM 33.3708 -104.7731 277° West 208 239 11,800 -726 Descending Albuquerque Center
Thu 05:40:41 PM 33.3781 -104.8433 277° West 211 243 11,100 -629 Descending Albuquerque Center
Thu 05:41:43 PM 33.3878 -104.9167 279° West 209 241 10,500 -581 Descending Albuquerque Center
Thu 05:42:45 PM 33.3967 -104.9861 279° West 211 243 9,900 -290 Descending Albuquerque Center
Thu 05:43:47 PM 33.4047 -105.0581 278° West 206 237 9,900  Level Albuquerque Center
Thu 05:44:49 PM 33.4114 -105.1222 277° West 197 227 9,900  Level Albuquerque Center
Thu 05:45:51 PM 33.4186 -105.1833 278° West 196 226 9,900  Level Albuquerque Center

Login

Don't have an account? Register now (free) for customized features, flight alerts, and more!